Time;durP1;ratioP1;P1;durP2;ratioP2;P2;SDS_P1;SDS_P2;PMS_P1;PMS_P2;Temp;Humidity;BMP_temperature;BMP_pressure;BME280_temperature;BME280_humidity;BME280_pressure;Samples;Min_cycle;Max_cycle;Signal;HPM_P1;HPM_P2
2022/05/07 00:02:24;0.00;0.00;0.62;0.00;0.00;0.62;2.37;1.40;;;29.90;22.80;;;;;;2239959;61;20809;-54
2022/05/07 00:05:09;0.00;0.00;0.62;0.00;0.00;0.62;1.73;1.10;;;29.90;22.80;;;;;;2240316;61;20373;-62
2022/05/07 00:07:54;0.00;0.00;0.62;0.00;0.00;0.62;1.60;1.13;;;29.90;22.80;;;;;;2240301;61;20417;-58
2022/05/07 00:10:39;0.00;0.00;0.62;0.00;0.00;0.62;2.00;1.20;;;29.80;22.70;;;;;;2239528;61;20449;-57
2022/05/07 00:13:25;0.00;0.00;0.62;0.00;0.00;0.62;1.73;1.03;;;29.80;22.70;;;;;;2240196;61;20452;-62
2022/05/07 00:19:13;0.00;0.00;0.62;0.00;0.00;0.62;2.23;1.33;;;29.80;22.70;;;;;;2278119;61;20367;-60
2022/05/07 00:21:57;0.00;0.00;0.62;0.00;0.00;0.62;2.10;1.40;;;29.90;22.80;;;;;;2247416;61;20363;-56
2022/05/07 00:24:42;0.00;0.00;0.62;0.00;0.00;0.62;1.47;0.97;;;29.80;22.80;;;;;;2247525;61;20360;-59
2022/05/07 00:27:26;0.00;0.00;0.62;0.00;0.00;0.62;1.63;1.20;;;29.80;22.80;;;;;;2248246;61;20364;-58
2022/05/07 00:30:12;0.00;0.00;0.62;0.00;0.00;0.62;1.80;1.20;;;29.80;22.80;;;;;;2247820;61;20501;-62
2022/05/07 00:32:58;0.00;0.00;0.62;0.00;0.00;0.62;1.73;1.30;;;29.80;22.80;;;;;;2247809;61;20795;-64
2022/05/07 00:35:42;0.00;0.00;0.62;0.00;0.00;0.62;2.20;1.33;;;29.80;22.80;;;;;;2248729;61;20372;-64
2022/05/07 00:38:27;0.00;0.00;0.62;0.00;0.00;0.62;1.77;1.10;;;29.80;22.80;;;;;;2248438;61;20348;-61
2022/05/07 00:41:12;0.00;0.00;0.62;0.00;0.00;0.62;1.53;1.20;;;29.80;22.80;;;;;;2247825;61;20908;-59
2022/05/07 00:43:56;0.00;0.00;0.62;0.00;0.00;0.62;1.60;1.07;;;29.80;22.80;;;;;;2248082;61;21041;-58
2022/05/07 00:46:44;0.00;0.00;0.62;0.00;0.00;0.62;1.53;1.00;;;29.80;22.90;;;;;;2247916;61;20904;-63
2022/05/07 00:49:28;0.00;0.00;0.62;0.00;0.00;0.62;1.50;0.90;;;29.80;22.90;;;;;;2247820;61;20450;-57
2022/05/07 00:52:13;0.00;0.00;0.62;0.00;0.00;0.62;1.77;1.27;;;29.80;22.90;;;;;;2247561;61;20448;-65
2022/05/07 00:54:58;0.00;0.00;0.62;0.00;0.00;0.62;3.00;2.10;;;29.80;22.90;;;;;;2247562;61;20360;-64
2022/05/07 00:57:43;0.00;0.00;0.62;0.00;0.00;0.62;2.30;1.80;;;29.80;22.80;;;;;;2247862;61;20436;-65
2022/05/07 01:00:28;0.00;0.00;0.62;0.00;0.00;0.62;2.73;2.30;;;29.80;22.80;;;;;;2247998;61;20368;-65
2022/05/07 01:03:14;0.00;0.00;0.62;0.00;0.00;0.62;2.10;1.43;;;29.80;22.80;;;;;;2247517;61;21048;-63
2022/05/07 01:06:00;0.00;0.00;0.62;0.00;0.00;0.62;2.50;2.00;;;29.80;22.80;;;;;;2247816;61;20384;-59
2022/05/07 01:08:46;0.00;0.00;0.62;0.00;0.00;0.62;1.90;1.43;;;29.80;22.90;;;;;;2250176;61;20400;-60
2022/05/07 01:11:31;0.00;0.00;0.62;0.00;0.00;0.62;2.27;1.80;;;29.80;22.90;;;;;;2247639;61;20704;-58
2022/05/07 01:14:18;0.00;0.00;0.62;0.00;0.00;0.62;2.30;2.00;;;29.80;22.90;;;;;;2247469;61;20923;-56
2022/05/07 01:17:06;0.00;0.00;0.62;0.00;0.00;0.62;2.00;1.70;;;29.80;22.90;;;;;;2252726;61;20376;-56
2022/05/07 01:19:53;0.00;0.00;0.62;0.00;0.00;0.62;2.13;1.93;;;29.80;22.90;;;;;;2248296;61;20395;-58
2022/05/07 01:22:41;0.00;0.00;0.62;0.00;0.00;0.62;1.90;1.57;;;29.80;22.90;;;;;;2250124;61;20392;-54
2022/05/07 01:25:28;0.00;0.00;0.62;0.00;0.00;0.62;2.27;2.00;;;29.80;22.90;;;;;;2250451;61;20363;-53
2022/05/07 01:28:15;0.00;0.00;0.62;0.00;0.00;0.62;2.00;1.80;;;29.80;22.90;;;;;;2251059;61;20362;-52
2022/05/07 01:31:00;0.00;0.00;0.62;0.00;0.00;0.62;2.13;1.93;;;29.80;22.90;;;;;;2247981;61;20473;-58
2022/05/07 01:33:45;0.00;0.00;0.62;0.00;0.00;0.62;2.90;2.60;;;29.80;22.80;;;;;;2248101;61;20492;-51
2022/05/07 01:36:33;0.00;0.00;0.62;0.00;0.00;0.62;2.73;2.43;;;29.80;22.80;;;;;;2248217;61;20935;-54
2022/05/07 01:39:23;0.00;0.00;0.62;0.00;0.00;0.62;2.67;2.47;;;29.80;22.80;;;;;;2248089;61;20415;-54
2022/05/07 01:42:08;0.00;0.00;0.62;0.00;0.00;0.62;3.10;2.80;;;29.70;22.70;;;;;;2248095;61;20367;-54
2022/05/07 01:44:53;0.00;0.00;0.62;0.00;0.00;0.62;2.90;2.70;;;29.70;22.70;;;;;;2248200;61;20899;-54
2022/05/07 01:50:43;0.00;0.00;0.62;0.00;0.00;0.62;3.80;3.40;;;29.70;22.50;;;;;;2247546;61;20380;-53
2022/05/07 01:53:30;0.00;0.00;0.62;0.00;0.00;0.62;3.40;2.70;;;29.70;22.50;;;;;;2248142;61;20386;-53
2022/05/07 01:56:17;0.00;0.00;0.62;0.00;0.00;0.62;3.83;3.43;;;29.70;22.50;;;;;;2248284;61;20362;-56
2022/05/07 01:59:04;0.00;0.00;0.62;0.00;0.00;0.62;3.33;3.03;;;29.70;22.50;;;;;;2248072;61;20850;-54
2022/05/07 02:01:49;0.00;0.00;0.62;0.00;0.00;0.62;3.90;2.93;;;29.70;22.50;;;;;;2247476;61;20711;-52
2022/05/07 02:04:33;0.00;0.00;0.62;0.00;0.00;0.62;3.43;3.13;;;29.70;22.50;;;;;;2248250;61;20531;-56
2022/05/07 02:07:21;0.00;0.00;0.62;0.00;0.00;0.62;4.93;3.83;;;29.70;22.50;;;;;;2248793;61;20384;-57
2022/05/07 02:10:07;0.00;0.00;0.62;0.00;0.00;0.62;5.00;3.90;;;29.60;22.40;;;;;;2247921;61;20387;-56
2022/05/07 02:12:54;0.00;0.00;0.62;0.00;0.00;0.62;3.70;3.27;;;29.60;22.40;;;;;;2247502;61;20902;-55
2022/05/07 02:15:40;0.00;0.00;0.62;0.00;0.00;0.62;4.30;3.90;;;29.70;22.40;;;;;;2248063;61;20383;-54
2022/05/07 02:18:25;0.00;0.00;0.62;0.00;0.00;0.62;3.50;3.20;;;29.60;22.40;;;;;;2248277;61;20395;-54
2022/05/07 02:21:09;0.00;0.00;0.62;0.00;0.00;0.62;3.50;3.20;;;29.60;22.40;;;;;;2248068;61;20355;-62
2022/05/07 02:23:54;0.00;0.00;0.62;0.00;0.00;0.62;3.77;3.47;;;29.60;22.40;;;;;;2248672;61;20407;-52
2022/05/07 02:26:39;0.00;0.00;0.62;0.00;0.00;0.62;5.07;3.70;;;29.60;22.40;;;;;;2248613;61;20419;-57
2022/05/07 02:29:25;0.00;0.00;0.62;0.00;0.00;0.62;3.50;3.20;;;29.60;22.40;;;;;;2248786;61;20371;-56
2022/05/07 02:32:13;0.00;0.00;0.62;0.00;0.00;0.62;3.93;3.57;;;29.50;22.30;;;;;;2247790;61;20842;-52
2022/05/07 02:35:01;0.00;0.00;0.62;0.00;0.00;0.62;3.83;3.43;;;29.60;22.40;;;;;;2471840;53;20362;-52
2022/05/07 02:37:54;0.00;0.00;0.62;0.00;0.00;0.62;4.20;3.70;;;29.50;22.30;;;;;;2245274;61;20770;-60
2022/05/07 02:43:49;0.00;0.00;0.62;0.00;0.00;0.62;4.00;3.63;;;29.50;22.40;;;;;;2242761;61;20522;-55
2022/05/07 02:46:37;0.00;0.00;0.62;0.00;0.00;0.62;4.60;3.57;;;29.50;22.30;;;;;;2245371;61;20413;-52
2022/05/07 02:49:25;0.00;0.00;0.62;0.00;0.00;0.62;3.67;3.37;;;29.40;22.30;;;;;;2245200;61;20389;-57
2022/05/07 02:52:10;0.00;0.00;0.62;0.00;0.00;0.62;4.03;3.63;;;29.40;22.30;;;;;;2240224;61;20384;-55
2022/05/07 02:54:56;0.00;0.00;0.62;0.00;0.00;0.62;4.60;4.07;;;29.40;22.30;;;;;;2240584;61;20392;-60
2022/05/07 02:57:41;0.00;0.00;0.62;0.00;0.00;0.62;4.37;3.97;;;29.40;22.30;;;;;;2239903;61;20505;-55
2022/05/07 03:00:26;0.00;0.00;0.62;0.00;0.00;0.62;4.40;3.47;;;29.40;22.30;;;;;;2239569;61;20424;-52
2022/05/07 03:03:12;0.00;0.00;0.62;0.00;0.00;0.62;3.90;3.50;;;29.30;22.20;;;;;;2240585;61;20393;-55
2022/05/07 03:05:59;0.00;0.00;0.62;0.00;0.00;0.62;3.93;3.20;;;29.30;22.20;;;;;;2240296;61;20412;-51
2022/05/07 03:08:44;0.00;0.00;0.62;0.00;0.00;0.62;3.87;3.53;;;29.30;22.20;;;;;;2240364;61;20498;-54
2022/05/07 03:11:28;0.00;0.00;0.62;0.00;0.00;0.62;4.17;3.47;;;29.30;22.20;;;;;;2239722;61;20393;-56
2022/05/07 03:14:13;0.00;0.00;0.62;0.00;0.00;0.62;3.80;3.50;;;29.30;22.30;;;;;;2240873;61;20429;-54
2022/05/07 03:16:58;0.00;0.00;0.62;0.00;0.00;0.62;4.10;3.53;;;29.20;22.20;;;;;;2240794;61;20365;-57
2022/05/07 03:19:44;0.00;0.00;0.62;0.00;0.00;0.62;3.90;3.50;;;29.20;22.30;;;;;;2239813;61;20417;-57
2022/05/07 03:22:28;0.00;0.00;0.62;0.00;0.00;0.62;4.93;3.83;;;29.20;22.30;;;;;;2239879;61;21146;-54
2022/05/07 03:25:15;0.00;0.00;0.62;0.00;0.00;0.62;4.10;3.67;;;29.20;22.30;;;;;;2239920;61;20972;-52
2022/05/07 03:28:01;0.00;0.00;0.62;0.00;0.00;0.62;4.00;3.70;;;29.20;22.40;;;;;;2245380;61;20918;-53
2022/05/07 03:30:46;0.00;0.00;0.62;0.00;0.00;0.62;4.03;3.63;;;29.10;22.40;;;;;;2239259;61;20386;-57
2022/05/07 03:33:30;0.00;0.00;0.62;0.00;0.00;0.62;4.27;3.87;;;29.10;22.40;;;;;;2245282;61;21030;-56
2022/05/07 03:36:21;0.00;0.00;0.62;0.00;0.00;0.62;4.17;3.77;;;29.10;22.50;;;;;;2240162;61;20373;-61
2022/05/07 03:39:07;0.00;0.00;0.62;0.00;0.00;0.62;3.97;3.57;;;29.10;22.50;;;;;;2245798;61;20373;-55
2022/05/07 03:41:55;0.00;0.00;0.62;0.00;0.00;0.62;4.40;4.00;;;29.10;22.50;;;;;;2244647;61;20365;-56
2022/05/07 03:44:40;0.00;0.00;0.62;0.00;0.00;0.62;3.87;3.50;;;29.00;22.50;;;;;;2242600;61;20369;-56
2022/05/07 03:47:24;0.00;0.00;0.62;0.00;0.00;0.62;3.37;3.07;;;29.00;22.50;;;;;;2240366;61;20385;-54
2022/05/07 03:50:09;0.00;0.00;0.62;0.00;0.00;0.62;3.53;3.23;;;29.00;22.60;;;;;;2244738;61;20856;-59
2022/05/07 03:56:02;0.00;0.00;0.62;0.00;0.00;0.62;3.53;3.23;;;29.00;22.60;;;;;;2242413;61;20502;-55
2022/05/07 03:58:51;0.00;0.00;0.62;0.00;0.00;0.62;3.23;2.93;;;29.00;22.60;;;;;;2242387;61;20694;-60
2022/05/07 04:01:48;0.00;0.00;0.62;0.00;0.00;0.62;3.70;3.13;;;28.90;22.60;;;;;;2245107;61;20366;-57
2022/05/07 04:04:33;0.00;0.00;0.62;0.00;0.00;0.62;3.73;3.43;;;28.90;22.60;;;;;;2245951;61;20440;-56
2022/05/07 04:07:23;0.00;0.00;0.62;0.00;0.00;0.62;4.07;3.77;;;28.90;22.60;;;;;;2249253;61;20477;-54
2022/05/07 04:10:20;0.00;0.00;0.62;0.00;0.00;0.62;3.50;3.03;;;28.90;22.60;;;;;;2243371;61;20964;-54
2022/05/07 04:13:07;0.00;0.00;0.62;0.00;0.00;0.62;3.97;3.67;;;28.90;22.60;;;;;;2243990;61;20397;-57
2022/05/07 04:15:51;0.00;0.00;0.62;0.00;0.00;0.62;4.10;3.37;;;28.80;22.50;;;;;;2244184;61;20460;-56
2022/05/07 04:18:37;0.00;0.00;0.62;0.00;0.00;0.62;4.03;3.63;;;28.80;22.50;;;;;;2243857;61;20419;-57
2022/05/07 04:21:28;0.00;0.00;0.62;0.00;0.00;0.62;4.43;4.03;;;28.80;22.50;;;;;;2245790;61;20405;-53
2022/05/07 04:24:22;0.00;0.00;0.62;0.00;0.00;0.62;3.83;3.43;;;28.80;22.60;;;;;;2243905;61;20432;-62
2022/05/07 04:27:11;0.00;0.00;0.62;0.00;0.00;0.62;4.17;3.77;;;28.80;22.60;;;;;;2243504;61;20400;-54
2022/05/07 04:29:57;0.00;0.00;0.62;0.00;0.00;0.62;3.93;3.53;;;28.70;22.50;;;;;;2243439;61;20771;-56
2022/05/07 04:32:42;0.00;0.00;0.62;0.00;0.00;0.62;3.80;3.43;;;28.70;22.60;;;;;;2243892;61;20473;-57
2022/05/07 04:35:29;0.00;0.00;0.62;0.00;0.00;0.62;4.10;3.70;;;28.70;22.60;;;;;;2244243;61;20502;-54
2022/05/07 04:38:18;0.00;0.00;0.62;0.00;0.00;0.62;3.83;3.47;;;28.60;22.50;;;;;;2246780;61;20404;-55
2022/05/07 04:41:04;0.00;0.00;0.62;0.00;0.00;0.62;5.40;3.83;;;28.70;22.60;;;;;;2243580;61;20866;-53
2022/05/07 04:43:52;0.00;0.00;0.62;0.00;0.00;0.62;4.00;3.70;;;28.60;22.60;;;;;;2248894;61;20454;-55
2022/05/07 04:46:37;0.00;0.00;0.62;0.00;0.00;0.62;4.33;3.80;;;28.60;22.60;;;;;;2243803;61;21004;-52
2022/05/07 04:49:26;0.00;0.00;0.62;0.00;0.00;0.62;4.30;3.37;;;28.60;22.60;;;;;;2243326;61;20365;-55
2022/05/07 04:52:14;0.00;0.00;0.62;0.00;0.00;0.62;3.67;3.37;;;28.50;22.60;;;;;;2243115;61;20794;-55
2022/05/07 04:55:03;0.00;0.00;0.62;0.00;0.00;0.62;4.53;3.47;;;28.50;22.60;;;;;;2243550;61;20745;-59
2022/05/07 04:57:48;0.00;0.00;0.62;0.00;0.00;0.62;3.90;3.60;;;28.50;22.70;;;;;;2243957;61;20411;-57
2022/05/07 05:00:35;0.00;0.00;0.62;0.00;0.00;0.62;3.97;3.20;;;28.50;22.70;;;;;;2243331;61;20374;-53
2022/05/07 05:03:29;0.00;0.00;0.62;0.00;0.00;0.62;3.83;3.53;;;28.50;22.80;;;;;;2243352;61;20532;-59
2022/05/07 05:06:24;0.00;0.00;0.62;0.00;0.00;0.62;4.83;4.30;;;28.50;22.80;;;;;;2243894;61;20940;-52
2022/05/07 05:09:28;0.00;0.00;0.62;0.00;0.00;0.62;3.90;3.50;;;28.50;22.80;;;;;;2243924;61;20924;-58
2022/05/07 05:12:28;0.00;0.00;0.62;0.00;0.00;0.62;4.10;3.60;;;28.40;22.90;;;;;;2243445;61;20387;-52
2022/05/07 05:15:13;0.00;0.00;0.62;0.00;0.00;0.62;3.67;3.37;;;28.40;22.90;;;;;;2243670;61;20373;-57
2022/05/07 05:18:19;0.00;0.00;0.62;0.00;0.00;0.62;4.57;4.17;;;28.40;22.90;;;;;;2243344;61;20436;-54
2022/05/07 05:21:08;0.00;0.00;0.62;0.00;0.00;0.62;4.00;3.60;;;28.40;22.90;;;;;;2243000;61;20372;-52
2022/05/07 05:24:15;0.00;0.00;0.62;0.00;0.00;0.62;4.20;3.33;;;28.40;23.00;;;;;;2243170;61;20408;-51
2022/05/07 05:27:01;0.00;0.00;0.62;0.00;0.00;0.62;4.20;3.90;;;28.30;22.90;;;;;;2243703;61;20368;-56
2022/05/07 05:29:53;0.00;0.00;0.62;0.00;0.00;0.62;4.17;3.77;;;28.30;22.90;;;;;;2248939;61;20820;-57
2022/05/07 05:32:38;0.00;0.00;0.62;0.00;0.00;0.62;4.17;3.70;;;28.30;22.90;;;;;;2243510;61;20989;-52
2022/05/07 05:35:26;0.00;0.00;0.62;0.00;0.00;0.62;4.43;4.03;;;28.30;22.90;;;;;;2243309;61;20380;-57
2022/05/07 05:38:15;0.00;0.00;0.62;0.00;0.00;0.62;4.07;3.60;;;28.30;22.90;;;;;;2243823;61;20392;-57
2022/05/07 05:41:02;0.00;0.00;0.62;0.00;0.00;0.62;5.23;4.00;;;28.30;22.90;;;;;;2243077;61;20453;-58
2022/05/07 05:43:48;0.00;0.00;0.62;0.00;0.00;0.62;4.10;3.70;;;28.30;22.90;;;;;;2243481;61;20404;-59
2022/05/07 05:46:33;0.00;0.00;0.62;0.00;0.00;0.62;3.40;3.10;;;28.30;22.90;;;;;;2243890;61;20364;-57
2022/05/07 05:49:18;0.00;0.00;0.62;0.00;0.00;0.62;4.13;3.73;;;28.20;22.90;;;;;;2243765;61;20512;-55
2022/05/07 05:52:07;0.00;0.00;0.62;0.00;0.00;0.62;3.43;3.13;;;28.30;22.90;;;;;;2242873;61;20408;-55
2022/05/07 05:54:57;0.00;0.00;0.62;0.00;0.00;0.62;3.40;3.07;;;28.20;22.90;;;;;;2243443;61;20895;-53
2022/05/07 05:57:44;0.00;0.00;0.62;0.00;0.00;0.62;3.50;3.13;;;28.20;22.90;;;;;;2243270;61;20436;-53
2022/05/07 06:00:28;0.00;0.00;0.62;0.00;0.00;0.62;3.47;3.17;;;28.20;22.90;;;;;;2243362;61;20396;-56
2022/05/07 06:03:13;0.00;0.00;0.62;0.00;0.00;0.62;3.53;3.23;;;28.20;22.90;;;;;;2243186;61;20396;-54
2022/05/07 06:05:58;0.00;0.00;0.62;0.00;0.00;0.62;3.70;3.07;;;28.20;22.90;;;;;;2243655;61;20375;-56
2022/05/07 06:08:44;0.00;0.00;0.62;0.00;0.00;0.62;3.90;3.20;;;28.20;22.90;;;;;;2243795;61;20953;-54
2022/05/07 06:11:30;0.00;0.00;0.62;0.00;0.00;0.62;4.03;3.63;;;28.20;22.90;;;;;;2243272;61;20476;-56
2022/05/07 06:14:15;0.00;0.00;0.62;0.00;0.00;0.62;3.20;2.90;;;28.20;23.00;;;;;;2244218;61;20388;-56
2022/05/07 06:17:00;0.00;0.00;0.62;0.00;0.00;0.62;3.57;3.20;;;28.10;22.90;;;;;;2243917;61;20369;-55
2022/05/07 06:19:45;0.00;0.00;0.62;0.00;0.00;0.62;3.43;3.10;;;28.20;23.00;;;;;;2243823;61;20845;-56
2022/05/07 06:22:30;0.00;0.00;0.62;0.00;0.00;0.62;3.53;3.23;;;28.20;23.00;;;;;;2243871;61;20376;-57
2022/05/07 06:28:27;0.00;0.00;0.62;0.00;0.00;0.62;3.30;3.00;;;28.20;23.00;;;;;;2246684;61;20778;-55
2022/05/07 06:31:12;0.00;0.00;0.62;0.00;0.00;0.62;3.50;3.20;;;28.10;22.90;;;;;;2243597;61;20448;-57
2022/05/07 06:33:59;0.00;0.00;0.62;0.00;0.00;0.62;3.67;3.37;;;28.20;23.00;;;;;;2242731;61;20400;-53
2022/05/07 06:36:45;0.00;0.00;0.62;0.00;0.00;0.62;3.60;3.30;;;28.10;22.90;;;;;;2249741;61;20368;-55
2022/05/07 06:39:31;0.00;0.00;0.62;0.00;0.00;0.62;3.60;3.10;;;28.10;23.00;;;;;;2249170;61;21012;-53
2022/05/07 06:42:18;0.00;0.00;0.62;0.00;0.00;0.62;4.70;3.50;;;28.10;23.00;;;;;;2243501;61;20933;-55
2022/05/07 06:45:07;0.00;0.00;0.62;0.00;0.00;0.62;4.30;3.47;;;28.10;23.00;;;;;;2244139;61;20365;-55
2022/05/07 06:47:52;0.00;0.00;0.62;0.00;0.00;0.62;3.70;3.27;;;28.10;23.00;;;;;;2246734;61;20820;-55
2022/05/07 06:50:37;0.00;0.00;0.62;0.00;0.00;0.62;3.50;2.97;;;28.20;23.00;;;;;;2243589;61;20389;-56
2022/05/07 06:53:22;0.00;0.00;0.62;0.00;0.00;0.62;3.30;2.67;;;28.10;22.90;;;;;;2244273;61;20905;-60
2022/05/07 06:56:07;0.00;0.00;0.62;0.00;0.00;0.62;4.07;3.30;;;28.10;22.90;;;;;;2244608;61;20420;-53
2022/05/07 06:58:53;0.00;0.00;0.62;0.00;0.00;0.62;3.17;2.87;;;28.10;22.90;;;;;;2244328;61;20424;-57
2022/05/07 07:01:38;0.00;0.00;0.62;0.00;0.00;0.62;3.53;3.13;;;28.10;22.90;;;;;;2243822;61;20917;-56
2022/05/07 07:04:23;0.00;0.00;0.62;0.00;0.00;0.62;3.63;2.83;;;28.10;23.00;;;;;;2244453;61;20435;-55
2022/05/07 07:07:09;0.00;0.00;0.62;0.00;0.00;0.62;3.53;3.03;;;28.20;23.00;;;;;;2244516;61;20925;-49
2022/05/07 07:09:53;0.00;0.00;0.62;0.00;0.00;0.62;3.50;3.03;;;28.20;23.00;;;;;;2244381;61;20449;-54
2022/05/07 07:12:39;0.00;0.00;0.62;0.00;0.00;0.62;3.50;2.90;;;28.20;23.00;;;;;;2243499;61;20411;-50
2022/05/07 07:15:25;0.00;0.00;0.62;0.00;0.00;0.62;3.13;2.73;;;28.10;23.00;;;;;;2244488;61;20416;-54
2022/05/07 07:18:14;0.00;0.00;0.62;0.00;0.00;0.62;3.20;2.90;;;28.20;22.90;;;;;;2473169;53;20385;-54
2022/05/07 07:20:59;0.00;0.00;0.62;0.00;0.00;0.62;4.27;3.20;;;28.20;22.90;;;;;;2239905;61;20413;-56
2022/05/07 07:23:44;0.00;0.00;0.62;0.00;0.00;0.62;4.17;2.97;;;28.20;23.00;;;;;;2239421;61;20449;-52
2022/05/07 07:26:28;0.00;0.00;0.62;0.00;0.00;0.62;3.00;2.70;;;28.20;22.90;;;;;;2239986;61;20429;-57
2022/05/07 07:29:13;0.00;0.00;0.62;0.00;0.00;0.62;2.93;2.50;;;28.20;23.00;;;;;;2245328;61;20768;-50
2022/05/07 07:31:59;0.00;0.00;0.62;0.00;0.00;0.62;3.40;3.10;;;28.20;23.00;;;;;;2239848;61;20396;-55
2022/05/07 07:34:44;0.00;0.00;0.62;0.00;0.00;0.62;3.33;3.03;;;28.20;23.00;;;;;;2238355;61;20444;-56
2022/05/07 07:37:32;0.00;0.00;0.62;0.00;0.00;0.62;4.10;3.23;;;28.20;23.10;;;;;;2240497;61;20361;-53
2022/05/07 07:40:17;0.00;0.00;0.62;0.00;0.00;0.62;3.30;3.00;;;28.20;23.10;;;;;;2240748;61;20871;-55
2022/05/07 07:43:02;0.00;0.00;0.62;0.00;0.00;0.62;4.53;4.13;;;28.20;23.10;;;;;;2239895;61;20384;-50
2022/05/07 07:48:52;0.00;0.00;0.62;0.00;0.00;0.62;6.63;5.03;;;28.20;23.00;;;;;;2239762;61;20361;-57
2022/05/07 07:51:37;0.00;0.00;0.62;0.00;0.00;0.62;5.40;4.80;;;28.10;22.90;;;;;;2239369;61;20389;-65
2022/05/07 07:54:22;0.00;0.00;0.62;0.00;0.00;0.62;4.47;4.07;;;28.10;22.80;;;;;;2240668;61;20393;-61
2022/05/07 07:57:07;0.00;0.00;0.62;0.00;0.00;0.62;4.73;4.17;;;28.10;22.80;;;;;;2239784;61;20365;-52
2022/05/07 07:59:52;0.00;0.00;0.62;0.00;0.00;0.62;4.17;3.80;;;28.00;22.80;;;;;;2240128;61;20420;-58
2022/05/07 08:02:46;0.00;0.00;0.62;0.00;0.00;0.62;5.70;4.13;;;28.00;22.90;;;;;;2240241;61;20377;-57
2022/05/07 08:05:35;0.00;0.00;0.62;0.00;0.00;0.62;6.20;5.60;;;27.90;22.90;;;;;;2240598;61;20373;-56
2022/05/07 08:11:40;0.00;0.00;0.62;0.00;0.00;0.62;5.50;4.47;;;27.90;22.90;;;;;;2239268;61;20401;-58
2022/05/07 08:14:24;0.00;0.00;0.62;0.00;0.00;0.62;5.53;3.93;;;27.80;23.00;;;;;;2240431;61;20424;-55
2022/05/07 08:17:11;0.00;0.00;0.62;0.00;0.00;0.62;4.23;3.83;;;27.80;23.10;;;;;;2242698;61;20372;-55
2022/05/07 08:19:55;0.00;0.00;0.62;0.00;0.00;0.62;5.30;4.50;;;27.80;23.10;;;;;;2239983;61;20457;-56
2022/05/07 08:22:41;0.00;0.00;0.62;0.00;0.00;0.62;5.40;4.90;;;27.70;23.20;;;;;;2240389;61;20490;-54
2022/05/07 08:25:26;0.00;0.00;0.62;0.00;0.00;0.62;3.70;3.40;;;27.70;23.20;;;;;;2239811;61;20369;-56
2022/05/07 08:28:10;0.00;0.00;0.62;0.00;0.00;0.62;5.20;4.00;;;27.70;23.30;;;;;;2240463;61;20425;-60
2022/05/07 08:30:55;0.00;0.00;0.62;0.00;0.00;0.62;4.60;4.20;;;27.70;23.40;;;;;;2240348;61;21023;-53
2022/05/07 08:33:43;0.00;0.00;0.62;0.00;0.00;0.62;5.20;4.70;;;27.70;23.40;;;;;;2239734;61;20441;-53
2022/05/07 08:36:28;0.00;0.00;0.62;0.00;0.00;0.62;6.90;4.00;;;27.70;23.50;;;;;;2240508;61;20482;-51
2022/05/07 08:39:14;0.00;0.00;0.62;0.00;0.00;0.62;5.23;4.73;;;27.80;23.50;;;;;;2240398;61;20432;-58
2022/05/07 08:41:59;0.00;0.00;0.62;0.00;0.00;0.62;4.93;4.43;;;27.80;23.60;;;;;;2239633;61;20354;-61
2022/05/07 08:44:44;0.00;0.00;0.62;0.00;0.00;0.62;4.00;3.70;;;27.80;23.70;;;;;;2240538;61;20369;-60
2022/05/07 08:47:29;0.00;0.00;0.62;0.00;0.00;0.62;6.63;4.53;;;27.80;23.70;;;;;;2239982;61;20370;-61
2022/05/07 08:50:14;0.00;0.00;0.62;0.00;0.00;0.62;4.00;3.60;;;27.80;23.70;;;;;;2240332;61;20417;-57
2022/05/07 08:52:59;0.00;0.00;0.62;0.00;0.00;0.62;3.40;3.03;;;27.80;23.70;;;;;;2240514;61;20426;-66
2022/05/07 08:55:45;0.00;0.00;0.62;0.00;0.00;0.62;4.00;2.90;;;27.80;23.70;;;;;;2239602;61;20389;-56
2022/05/07 08:58:29;0.00;0.00;0.62;0.00;0.00;0.62;3.30;3.00;;;27.80;23.70;;;;;;2240094;61;20404;-55
2022/05/07 09:01:14;0.00;0.00;0.62;0.00;0.00;0.62;3.60;3.30;;;27.80;23.70;;;;;;2240029;61;20950;-62
2022/05/07 09:04:09;0.00;0.00;0.62;0.00;0.00;0.62;3.10;2.77;;;27.80;23.70;;;;;;2247499;61;20407;-59
2022/05/07 09:06:57;0.00;0.00;0.62;0.00;0.00;0.62;3.13;2.83;;;27.80;23.70;;;;;;2247457;61;20396;-60
2022/05/07 09:09:47;0.00;0.00;0.62;0.00;0.00;0.62;3.40;3.10;;;27.80;23.70;;;;;;2247740;61;20780;-61
2022/05/07 09:12:33;0.00;0.00;0.62;0.00;0.00;0.62;2.80;2.40;;;27.80;23.70;;;;;;2248074;61;20390;-58
2022/05/07 09:15:17;0.00;0.00;0.62;0.00;0.00;0.62;2.90;2.17;;;27.80;23.70;;;;;;2248360;61;20920;-62
2022/05/07 09:18:12;0.00;0.00;0.62;0.00;0.00;0.62;4.00;2.60;;;27.80;23.70;;;;;;2247529;61;20947;-58
2022/05/07 09:21:18;0.00;0.00;0.62;0.00;0.00;0.62;2.93;2.63;;;27.80;23.70;;;;;;2247876;61;20356;-58
2022/05/07 09:24:08;0.00;0.00;0.62;0.00;0.00;0.62;3.30;2.93;;;27.80;23.70;;;;;;2248321;61;20408;-58
2022/05/07 09:26:57;0.00;0.00;0.62;0.00;0.00;0.62;2.70;2.50;;;27.80;23.70;;;;;;2248233;61;20916;-58
2022/05/07 09:29:43;0.00;0.00;0.62;0.00;0.00;0.62;3.07;2.57;;;27.80;23.70;;;;;;2248221;61;20674;-55
2022/05/07 09:32:38;0.00;0.00;0.62;0.00;0.00;0.62;2.67;2.47;;;27.80;23.70;;;;;;2247156;61;20438;-57
2022/05/07 09:38:30;0.00;0.00;0.62;0.00;0.00;0.62;3.23;2.93;;;27.90;23.80;;;;;;2248461;61;20379;-53
2022/05/07 09:41:20;0.00;0.00;0.62;0.00;0.00;0.62;2.50;2.30;;;27.90;23.80;;;;;;2246995;61;20641;-60
2022/05/07 09:44:04;0.00;0.00;0.62;0.00;0.00;0.62;2.77;2.47;;;27.90;23.80;;;;;;2248361;61;20971;-57
2022/05/07 09:46:51;0.00;0.00;0.62;0.00;0.00;0.62;2.50;2.30;;;27.90;23.80;;;;;;2247671;61;20772;-59
2022/05/07 09:49:36;0.00;0.00;0.62;0.00;0.00;0.62;3.40;2.47;;;27.90;23.80;;;;;;2248936;61;20829;-56
2022/05/07 09:52:21;0.00;0.00;0.62;0.00;0.00;0.62;2.60;2.40;;;27.90;23.80;;;;;;2248818;61;20852;-56
2022/05/07 09:58:28;0.00;0.00;0.62;0.00;0.00;0.62;3.07;2.63;;;28.00;23.80;;;;;;2235701;62;20454;-57
2022/05/07 10:02:00;0.00;0.00;0.62;0.00;0.00;0.62;2.40;2.03;;;28.00;23.80;;;;;;2248626;61;20831;-54
2022/05/07 10:05:20;0.00;0.00;0.62;0.00;0.00;0.62;2.40;2.13;;;28.00;23.80;;;;;;2248963;61;20440;-57
2022/05/07 10:08:27;0.00;0.00;0.62;0.00;0.00;0.62;3.30;2.77;;;28.00;23.80;;;;;;2249052;61;20507;-59
2022/05/07 10:11:13;0.00;0.00;0.62;0.00;0.00;0.62;3.20;2.20;;;28.00;23.80;;;;;;2247502;61;21012;-59
2022/05/07 10:13:58;0.00;0.00;0.62;0.00;0.00;0.62;3.80;2.87;;;28.10;23.90;;;;;;2248689;61;20788;-59
2022/05/07 10:16:43;0.00;0.00;0.62;0.00;0.00;0.62;2.50;2.30;;;28.10;23.90;;;;;;2248185;61;20415;-58
2022/05/07 10:19:35;0.00;0.00;0.62;0.00;0.00;0.62;2.43;2.13;;;28.10;23.90;;;;;;2248689;61;21439;-56
2022/05/07 10:22:26;0.00;0.00;0.62;0.00;0.00;0.62;5.00;2.87;;;28.10;23.90;;;;;;2248492;61;20359;-60
2022/05/07 10:25:13;0.00;0.00;0.62;0.00;0.00;0.62;3.20;2.90;;;28.10;23.90;;;;;;2248019;61;20764;-57
2022/05/07 10:28:09;0.00;0.00;0.62;0.00;0.00;0.62;2.70;2.50;;;28.10;23.90;;;;;;2248485;61;20430;-61
2022/05/07 10:30:56;0.00;0.00;0.62;0.00;0.00;0.62;2.73;2.33;;;28.10;23.90;;;;;;2248166;61;20399;-57
2022/05/07 10:33:41;0.00;0.00;0.62;0.00;0.00;0.62;2.57;2.33;;;28.10;23.90;;;;;;2248836;61;20379;-55
2022/05/07 10:36:35;0.00;0.00;0.62;0.00;0.00;0.62;3.13;2.77;;;28.20;24.00;;;;;;2248775;61;20876;-54
2022/05/07 10:39:21;0.00;0.00;0.62;0.00;0.00;0.62;3.97;2.63;;;28.20;24.00;;;;;;2247961;61;20448;-55
2022/05/07 10:42:15;0.00;0.00;0.62;0.00;0.00;0.62;3.10;2.80;;;28.20;24.00;;;;;;2248415;61;20519;-59
2022/05/07 10:45:01;0.00;0.00;0.62;0.00;0.00;0.62;2.97;2.67;;;28.20;24.00;;;;;;2248280;61;20359;-55
2022/05/07 10:47:53;0.00;0.00;0.62;0.00;0.00;0.62;2.73;2.53;;;28.20;24.00;;;;;;2248258;61;20410;-54
2022/05/07 10:50:37;0.00;0.00;0.62;0.00;0.00;0.62;3.00;2.77;;;28.20;24.00;;;;;;2248201;61;20364;-70
2022/05/07 10:53:22;0.00;0.00;0.62;0.00;0.00;0.62;3.00;2.23;;;28.30;24.00;;;;;;2247390;61;20462;-63
2022/05/07 10:56:17;0.00;0.00;0.62;0.00;0.00;0.62;2.57;2.20;;;28.30;23.90;;;;;;2248769;61;20360;-60
2022/05/07 10:59:02;0.00;0.00;0.62;0.00;0.00;0.62;3.17;2.40;;;28.30;23.90;;;;;;2248596;61;20800;-57
2022/05/07 11:01:48;0.00;0.00;0.62;0.00;0.00;0.62;2.80;2.50;;;28.30;23.90;;;;;;2247505;61;20404;-57
2022/05/07 11:04:42;0.00;0.00;0.62;0.00;0.00;0.62;2.70;2.50;;;28.30;23.80;;;;;;2248561;61;20527;-54
2022/05/07 11:07:28;0.00;0.00;0.62;0.00;0.00;0.62;2.20;2.00;;;28.40;23.90;;;;;;2248856;61;20395;-57
2022/05/07 11:10:13;0.00;0.00;0.62;0.00;0.00;0.62;3.37;2.80;;;28.40;23.90;;;;;;2248075;61;20388;-56
2022/05/07 11:13:06;0.00;0.00;0.62;0.00;0.00;0.62;4.00;2.40;;;28.40;23.90;;;;;;2248563;61;20979;-59
2022/05/07 11:16:03;0.00;0.00;0.62;0.00;0.00;0.62;4.17;2.83;;;28.40;23.90;;;;;;2247818;61;20586;-56
2022/05/07 11:18:51;0.00;0.00;0.62;0.00;0.00;0.62;3.90;2.77;;;28.40;23.80;;;;;;2248560;61;20367;-53
2022/05/07 11:21:37;0.00;0.00;0.62;0.00;0.00;0.62;2.73;2.53;;;28.50;23.80;;;;;;2247747;61;20375;-57
2022/05/07 11:24:24;0.00;0.00;0.62;0.00;0.00;0.62;4.40;3.23;;;28.50;23.80;;;;;;2247841;61;20431;-53
2022/05/07 11:27:11;0.00;0.00;0.62;0.00;0.00;0.62;2.83;2.20;;;28.50;23.80;;;;;;2248558;61;20916;-56
2022/05/07 11:29:58;0.00;0.00;0.62;0.00;0.00;0.62;3.80;2.53;;;28.50;23.80;;;;;;2248624;61;20359;-57